createdAt,value
2018-11-28T00:02:16.026Z,24.60
2018-11-28T00:04:50.109Z,21.40
2018-11-28T00:07:24.244Z,25.33
2018-11-28T00:09:58.266Z,23.53
2018-11-28T00:12:32.407Z,22.10
2018-11-28T00:15:07.316Z,25.47
2018-11-28T00:17:41.421Z,24.40
2018-11-28T00:20:17.470Z,25.23
2018-11-28T00:22:51.565Z,23.43
2018-11-28T00:25:25.534Z,22.87
2018-11-28T00:27:59.606Z,25.83
2018-11-28T00:30:33.535Z,27.13
2018-11-28T00:33:07.544Z,32.37
2018-11-28T00:35:41.509Z,27.33
2018-11-28T00:38:15.595Z,28.07
2018-11-28T00:40:49.560Z,25.53
2018-11-28T00:43:23.543Z,30.40
2018-11-28T00:45:57.515Z,26.90
2018-11-28T00:48:31.615Z,22.07
2018-11-28T00:51:05.689Z,20.63
2018-11-28T00:53:39.834Z,22.37
2018-11-28T00:56:13.775Z,27.37
2018-11-28T00:58:47.749Z,23.77
2018-11-28T01:01:21.690Z,21.57
2018-11-28T01:03:55.674Z,20.37
2018-11-28T01:06:29.601Z,24.87
2018-11-28T01:09:04.024Z,22.10
2018-11-28T01:11:37.998Z,26.60
2018-11-28T01:14:11.970Z,25.17
2018-11-28T01:16:45.925Z,19.70
2018-11-28T01:19:19.902Z,22.70
2018-11-28T01:21:53.855Z,25.20
2018-11-28T01:24:27.892Z,19.50
2018-11-28T01:27:01.811Z,25.07
2018-11-28T01:29:35.886Z,23.67
2018-11-28T01:32:09.816Z,21.97
2018-11-28T01:34:43.809Z,20.77
2018-11-28T01:37:17.735Z,19.50
2018-11-28T01:39:51.835Z,23.37
2018-11-28T01:42:25.776Z,21.97
2018-11-28T01:44:59.742Z,17.67
2018-11-28T01:47:33.662Z,20.73
2018-11-28T01:50:09.892Z,21.90
2018-11-28T01:52:43.896Z,20.83
2018-11-28T01:55:18.947Z,21.90
2018-11-28T01:57:52.912Z,20.90
2018-11-28T02:00:27.684Z,25.60
2018-11-28T02:03:02.442Z,26.30
2018-11-28T02:05:36.451Z,24.50
2018-11-28T02:08:10.420Z,25.83
2018-11-28T02:10:44.426Z,23.50
2018-11-28T02:13:18.341Z,21.07
2018-11-28T02:15:52.442Z,21.63
2018-11-28T02:18:26.394Z,21.67
2018-11-28T02:21:00.370Z,20.23
2018-11-28T02:23:34.340Z,20.60
2018-11-28T02:26:08.308Z,23.90
2018-11-28T02:28:42.267Z,25.33
2018-11-28T02:31:16.248Z,23.80
2018-11-28T02:33:50.214Z,23.33
2018-11-28T02:36:24.270Z,22.23
2018-11-28T02:38:58.222Z,23.40
2018-11-28T02:41:32.190Z,22.07
2018-11-28T02:44:07.253Z,22.77
2018-11-28T02:46:41.183Z,24.17
2018-11-28T02:49:15.107Z,25.57
2018-11-28T02:51:49.027Z,22.77
2018-11-28T02:54:23.050Z,24.50
2018-11-28T02:56:56.957Z,20.43
2018-11-28T02:59:30.925Z,21.30
2018-11-28T03:02:05.025Z,21.60
2018-11-28T03:04:38.975Z,24.43
2018-11-28T03:07:12.919Z,22.80
2018-11-28T03:09:46.854Z,23.90
2018-11-28T03:12:20.737Z,24.83
2018-11-28T03:14:54.791Z,25.10
2018-11-28T03:17:28.728Z,28.43
2018-11-28T03:20:02.674Z,23.77
2018-11-28T03:22:36.823Z,26.67
2018-11-28T03:25:11.812Z,25.17
2018-11-28T03:27:45.712Z,20.97
2018-11-28T03:30:19.654Z,24.53
2018-11-28T03:32:53.754Z,23.40
2018-11-28T03:35:27.634Z,22.90
2018-11-28T03:38:01.558Z,23.10
2018-11-28T03:40:35.566Z,26.57
2018-11-28T03:43:09.499Z,25.03
2018-11-28T03:45:43.501Z,25.67
2018-11-28T03:48:23.205Z,27.93
2018-11-28T03:50:57.152Z,26.47
2018-11-28T03:53:31.046Z,24.70
2018-11-28T03:56:05.112Z,26.43
2018-11-28T03:58:39.094Z,25.53
2018-11-28T04:01:13.077Z,30.13
2018-11-28T04:03:46.997Z,26.47
2018-11-28T04:06:20.966Z,21.70
2018-11-28T04:08:54.867Z,29.60
2018-11-28T04:11:28.793Z,27.50
2018-11-28T04:14:02.690Z,24.83
2018-11-28T04:16:36.698Z,29.57
2018-11-28T04:19:10.617Z,24.47
2018-11-28T04:21:44.629Z,26.83
2018-11-28T04:24:18.607Z,23.97
2018-11-28T04:26:52.631Z,29.10
2018-11-28T04:29:26.535Z,30.60
2018-11-28T04:32:00.586Z,31.13
2018-11-28T04:34:34.516Z,34.33
2018-11-28T04:37:08.563Z,25.93
2018-11-28T04:39:42.470Z,31.83
2018-11-28T04:42:16.404Z,27.77
2018-11-28T04:44:50.348Z,30.57
2018-11-28T04:47:24.308Z,23.23
2018-11-28T04:49:58.207Z,30.10
2018-11-28T04:52:32.163Z,26.73
2018-11-28T04:55:12.904Z,27.63
2018-11-28T04:57:46.984Z,26.17
2018-11-28T05:00:26.060Z,31.43
2018-11-28T05:03:00.008Z,25.90
2018-11-28T05:05:33.938Z,24.80
2018-11-28T05:08:07.895Z,29.73
2018-11-28T05:10:41.825Z,27.50
2018-11-28T05:13:15.879Z,28.10
2018-11-28T05:15:49.793Z,25.27
2018-11-28T05:18:23.725Z,24.87
2018-11-28T05:20:57.643Z,28.77
2018-11-28T05:23:31.705Z,28.90
2018-11-28T05:26:06.223Z,26.70
2018-11-28T05:28:40.264Z,28.33
2018-11-28T05:31:14.170Z,26.70
2018-11-28T05:33:48.189Z,26.83
2018-11-28T05:36:22.108Z,24.97
2018-11-28T05:38:56.212Z,24.00
2018-11-28T05:41:30.117Z,26.63
2018-11-28T05:44:04.334Z,29.40
2018-11-28T05:46:38.336Z,25.03
2018-11-28T05:49:15.107Z,28.30
2018-11-28T05:51:46.338Z,29.07
2018-11-28T05:54:20.354Z,26.73
2018-11-28T05:56:54.257Z,32.10
2018-11-28T05:59:28.235Z,55.73
2018-11-28T06:02:02.218Z,62.23
2018-11-28T06:04:36.228Z,84.63
2018-11-28T06:07:10.161Z,97.73
2018-11-28T06:09:44.174Z,120.33
2018-11-28T06:12:18.096Z,92.97
2018-11-28T06:14:52.195Z,78.70
2018-11-28T06:17:26.153Z,74.37
2018-11-28T06:20:00.091Z,57.30
2018-11-28T06:22:33.989Z,40.60
2018-11-28T06:25:15.836Z,37.67
2018-11-28T06:27:43.861Z,32.60
2018-11-28T06:30:19.572Z,31.27
2018-11-28T06:32:53.492Z,35.60
2018-11-28T06:35:27.595Z,32.50
2018-11-28T06:38:01.499Z,32.83
2018-11-28T06:40:35.468Z,31.13
2018-11-28T06:43:09.398Z,34.17
2018-11-28T06:45:43.369Z,28.33
2018-11-28T06:48:17.325Z,30.83
2018-11-28T06:50:51.291Z,28.10
2018-11-28T06:53:25.233Z,24.97
2018-11-28T06:55:59.308Z,24.47
2018-11-28T06:58:33.232Z,26.93
2018-11-28T07:01:08.121Z,23.63
2018-11-28T07:03:42.032Z,29.03
2018-11-28T07:06:15.989Z,27.23
2018-11-28T07:08:49.910Z,26.03
2018-11-28T07:11:24.375Z,26.77
2018-11-28T07:13:59.052Z,26.73
2018-11-28T07:16:34.439Z,32.13
2018-11-28T07:19:12.093Z,25.77
2018-11-28T07:21:46.052Z,29.93
2018-11-28T07:24:20.050Z,25.00
2018-11-28T07:26:54.189Z,23.33
2018-11-28T07:29:28.197Z,24.20
2018-11-28T07:32:02.170Z,24.43
2018-11-28T07:34:37.684Z,27.03
2018-11-28T07:37:11.766Z,27.80
2018-11-28T07:39:45.667Z,21.90
2018-11-28T07:42:19.747Z,30.07
2018-11-28T07:44:53.650Z,29.43
2018-11-28T07:47:27.688Z,29.40
2018-11-28T07:50:01.652Z,30.17
2018-11-28T07:52:35.742Z,25.60
2018-11-28T07:55:11.257Z,23.57
2018-11-28T07:57:45.266Z,25.87
2018-11-28T08:00:19.158Z,28.37
2018-11-28T08:02:53.179Z,25.93
2018-11-28T08:05:27.093Z,25.43
2018-11-28T08:08:01.163Z,26.33
2018-11-28T08:10:35.064Z,27.77
2018-11-28T08:13:09.457Z,31.73
2018-11-28T08:15:43.391Z,29.47
2018-11-28T08:18:17.374Z,37.47
2018-11-28T08:20:51.246Z,31.00
2018-11-28T08:23:26.166Z,32.63
2018-11-28T08:26:00.084Z,35.70
2018-11-28T08:28:34.097Z,34.73
2018-11-28T08:31:08.008Z,34.53
2018-11-28T08:33:42.121Z,34.83
2018-11-28T08:36:16.018Z,36.13
2018-11-28T08:38:50.144Z,38.83
2018-11-28T08:41:24.034Z,35.97
2018-11-28T08:43:57.971Z,35.83
2018-11-28T08:46:31.902Z,36.57
2018-11-28T08:49:05.895Z,38.90
2018-11-28T08:51:39.828Z,40.50
2018-11-28T08:54:13.882Z,41.73
2018-11-28T08:56:47.784Z,37.63
2018-11-28T08:59:21.766Z,42.00
2018-11-28T09:01:55.711Z,40.73
2018-11-28T09:04:29.739Z,46.90
2018-11-28T09:07:03.704Z,42.57
2018-11-28T09:09:37.763Z,44.47
2018-11-28T09:12:11.678Z,42.00
2018-11-28T09:14:45.756Z,45.13
2018-11-28T09:17:19.709Z,46.27
2018-11-28T09:19:53.825Z,45.67
2018-11-28T09:22:27.771Z,42.93
2018-11-28T09:25:01.756Z,44.33
2018-11-28T09:27:35.705Z,44.83
2018-11-28T09:30:15.310Z,45.30
2018-11-28T09:32:50.220Z,46.37
2018-11-28T09:35:24.255Z,47.33
2018-11-28T09:37:58.177Z,48.83
2018-11-28T09:40:32.139Z,43.20
2018-11-28T09:43:06.780Z,50.37
2018-11-28T09:45:41.394Z,45.33
2018-11-28T09:48:15.330Z,47.20
2018-11-28T09:50:49.355Z,44.03
2018-11-28T09:53:23.313Z,46.90
2018-11-28T09:55:57.259Z,46.60
2018-11-28T09:58:31.155Z,44.97
2018-11-28T10:01:05.181Z,46.53
2018-11-28T10:03:39.121Z,52.00
2018-11-28T10:06:13.067Z,47.13
2018-11-28T10:08:47.031Z,44.00
2018-11-28T10:11:21.058Z,41.13
2018-11-28T10:13:54.963Z,45.27
2018-11-28T10:16:29.083Z,45.37
2018-11-28T10:19:03.038Z,46.50
2018-11-28T10:21:37.052Z,44.13
2018-11-28T10:24:11.001Z,44.10
2018-11-28T10:26:44.946Z,44.70
2018-11-28T10:29:18.940Z,46.27
2018-11-28T10:31:53.565Z,43.93
2018-11-28T10:34:29.594Z,46.17
2018-11-28T10:37:01.603Z,46.70
2018-11-28T10:39:35.612Z,46.67
2018-11-28T10:42:09.677Z,45.37
2018-11-28T10:44:43.587Z,43.83
2018-11-28T10:47:17.630Z,46.43
2018-11-28T10:49:51.602Z,47.13
2018-11-28T10:52:25.712Z,43.27
2018-11-28T10:54:59.835Z,47.20
2018-11-28T10:57:33.826Z,42.13
2018-11-28T11:00:14.215Z,44.57
2018-11-28T11:02:53.270Z,46.37
2018-11-28T11:05:32.306Z,43.60
2018-11-28T11:08:12.064Z,42.43
2018-11-28T11:10:51.196Z,45.37
2018-11-28T11:13:30.356Z,41.13
2018-11-28T11:16:04.971Z,43.77
2018-11-28T11:18:39.799Z,43.53
2018-11-28T11:21:13.838Z,39.83
2018-11-28T11:23:47.935Z,40.80
2018-11-28T11:26:22.019Z,44.40
2018-11-28T11:28:55.967Z,40.60
2018-11-28T11:31:29.997Z,43.60
2018-11-28T11:34:03.990Z,41.10
2018-11-28T11:36:38.035Z,39.63
2018-11-28T11:39:12.064Z,39.43
2018-11-28T11:41:45.992Z,38.53
2018-11-28T11:44:20.071Z,42.73
2018-11-28T11:46:54.001Z,39.27
2018-11-28T11:49:28.355Z,38.87
2018-11-28T11:52:02.244Z,39.80
2018-11-28T11:54:36.185Z,39.77
2018-11-28T11:57:10.116Z,38.27
2018-11-28T11:59:44.126Z,38.07
2018-11-28T12:02:18.066Z,40.67
2018-11-28T12:04:52.291Z,38.77
2018-11-28T12:07:26.253Z,35.97
2018-11-28T12:10:00.301Z,40.67
2018-11-28T12:12:34.277Z,39.60
2018-11-28T12:15:13.161Z,38.00
2018-11-28T12:17:49.031Z,37.53
2018-11-28T12:20:26.729Z,37.10
2018-11-28T12:23:00.665Z,38.70
2018-11-28T12:25:34.699Z,35.40
2018-11-28T12:28:08.944Z,36.53
2018-11-28T12:30:43.764Z,36.03
2018-11-28T12:33:17.692Z,36.13
2018-11-28T12:35:51.687Z,37.00
2018-11-28T12:38:25.704Z,36.60
2018-11-28T12:41:00.090Z,36.57
2018-11-28T12:43:34.018Z,34.53
2018-11-28T12:46:08.193Z,38.40
2018-11-28T12:48:43.043Z,39.13
2018-11-28T12:51:17.036Z,33.40
2018-11-28T12:53:50.983Z,34.83
2018-11-28T12:56:25.038Z,37.20
2018-11-28T12:58:58.989Z,36.37
2018-11-28T13:01:32.997Z,34.77
2018-11-28T13:04:07.241Z,36.37
2018-11-28T13:06:41.375Z,34.87
2018-11-28T13:09:15.331Z,34.33
2018-11-28T13:11:49.360Z,30.43
2018-11-28T13:14:23.274Z,33.63
2018-11-28T13:16:57.240Z,33.67
2018-11-28T13:19:31.157Z,30.33
2018-11-28T13:22:05.396Z,31.90
2018-11-28T13:24:39.400Z,33.13
2018-11-28T13:27:13.400Z,31.17
2018-11-28T13:29:47.298Z,34.40
2018-11-28T13:32:21.276Z,29.57
2018-11-28T13:34:55.207Z,31.70
2018-11-28T13:37:29.167Z,35.80
2018-11-28T13:40:03.125Z,31.77
2018-11-28T13:42:37.131Z,32.70
2018-11-28T13:45:24.860Z,30.73
2018-11-28T13:47:58.874Z,30.77
2018-11-28T13:50:32.846Z,30.77
2018-11-28T13:53:11.318Z,31.40
2018-11-28T13:56:30.049Z,32.40
2018-11-28T13:58:23.689Z,29.50
2018-11-28T14:00:57.616Z,27.53
2018-11-28T14:03:31.592Z,31.10
2018-11-28T14:06:07.794Z,30.17
2018-11-28T14:08:41.776Z,30.77
2018-11-28T14:11:15.985Z,29.60
2018-11-28T14:13:50.175Z,34.73
2018-11-28T14:16:26.399Z,33.00
2018-11-28T14:19:00.998Z,30.97
2018-11-28T14:21:34.978Z,33.03
2018-11-28T14:24:08.931Z,32.20
2018-11-28T14:26:44.562Z,31.50
2018-11-28T14:29:18.507Z,30.50
2018-11-28T14:31:52.428Z,30.47
2018-11-28T14:34:26.457Z,32.63
2018-11-28T14:37:00.407Z,29.13
2018-11-28T14:39:34.391Z,31.50
2018-11-28T14:42:08.367Z,33.30
2018-11-28T14:44:43.114Z,35.10
2018-11-28T14:47:17.058Z,33.10
2018-11-28T14:49:52.464Z,31.67
2018-11-28T14:52:27.678Z,37.63
2018-11-28T14:55:01.871Z,31.03
2018-11-28T14:57:36.361Z,32.17
2018-11-28T15:00:20.914Z,33.13
2018-11-28T15:03:00.450Z,32.03
2018-11-28T15:05:39.251Z,37.83
2018-11-28T15:08:16.553Z,31.53
2018-11-28T15:10:57.938Z,32.80
2018-11-28T15:13:31.908Z,31.77
2018-11-28T15:16:06.162Z,31.00
2018-11-28T15:18:40.296Z,34.80
2018-11-28T15:21:14.288Z,32.67
2018-11-28T15:23:48.349Z,36.20
2018-11-28T15:26:22.305Z,32.87
2018-11-28T15:28:56.219Z,34.93
2018-11-28T15:31:30.303Z,31.50
2018-11-28T15:34:04.250Z,32.90
2018-11-28T15:36:38.603Z,30.70
2018-11-28T15:39:12.657Z,36.70
2018-11-28T15:41:47.574Z,32.60
2018-11-28T15:44:21.587Z,32.00
2018-11-28T15:46:55.682Z,35.67
2018-11-28T15:49:29.733Z,41.40
2018-11-28T15:52:03.773Z,35.90
2018-11-28T15:54:37.784Z,31.73
2018-11-28T15:57:12.682Z,34.27
2018-11-28T15:59:48.206Z,35.90
2018-11-28T16:02:24.186Z,34.33
2018-11-28T16:04:58.609Z,33.13
2018-11-28T16:07:34.815Z,38.37
2018-11-28T16:10:16.978Z,36.00
2018-11-28T16:12:51.400Z,35.10
2018-11-28T16:15:27.019Z,35.97
2018-11-28T16:18:01.105Z,36.60
2018-11-28T16:20:37.267Z,31.67
2018-11-28T16:23:11.278Z,31.73
2018-11-28T16:25:45.332Z,33.80
2018-11-28T16:28:19.585Z,34.53
2018-11-28T16:30:53.539Z,34.37
2018-11-28T16:33:27.592Z,35.27
2018-11-28T16:36:01.846Z,30.97
2018-11-28T16:38:35.834Z,30.70
2018-11-28T16:41:09.975Z,31.50
2018-11-28T16:43:44.024Z,34.00
2018-11-28T16:46:17.945Z,32.50
2018-11-28T16:48:51.920Z,31.90
2018-11-28T16:51:25.854Z,32.27
2018-11-28T16:53:59.961Z,31.83
2018-11-28T16:56:33.979Z,32.00
2018-11-28T16:59:15.380Z,33.57
2018-11-28T17:01:49.312Z,32.93
2018-11-28T17:04:24.338Z,32.77
2018-11-28T17:06:59.385Z,32.07
2018-11-28T17:09:34.962Z,33.40
2018-11-28T17:12:08.974Z,35.30
2018-11-28T17:14:42.990Z,30.63
2018-11-28T17:17:17.092Z,33.90
2018-11-28T17:19:51.133Z,32.50
2018-11-28T17:22:25.128Z,33.53
2018-11-28T17:24:59.127Z,33.63
2018-11-28T17:27:33.044Z,31.27
2018-11-28T17:30:10.952Z,32.37
2018-11-28T17:32:45.722Z,33.07
2018-11-28T17:35:19.997Z,34.73
2018-11-28T17:37:54.152Z,35.80
2018-11-28T17:40:29.262Z,32.07
2018-11-28T17:43:03.232Z,30.00
2018-11-28T17:45:37.314Z,32.50
2018-11-28T17:48:11.280Z,35.50
2018-11-28T17:50:45.245Z,32.57
2018-11-28T17:53:19.151Z,34.63
2018-11-28T17:55:55.559Z,32.47
2018-11-28T17:58:29.492Z,31.47
2018-11-28T18:01:03.525Z,31.73
2018-11-28T18:03:37.442Z,35.37
2018-11-28T18:06:11.383Z,31.60
2018-11-28T18:08:45.295Z,32.57
2018-11-28T18:11:19.245Z,32.93
2018-11-28T18:13:53.367Z,32.77
2018-11-28T18:16:29.449Z,36.07
2018-11-28T18:19:01.381Z,32.47
2018-11-28T18:21:35.638Z,29.57
2018-11-28T18:24:09.552Z,29.50
2018-11-28T18:26:43.974Z,31.20
2018-11-28T18:29:17.895Z,28.33
2018-11-28T18:31:51.951Z,31.47
2018-11-28T18:34:25.820Z,32.10
2018-11-28T18:36:59.847Z,33.07
2018-11-28T18:39:33.808Z,31.87
2018-11-28T18:42:07.934Z,36.63
2018-11-28T18:44:42.007Z,29.20
2018-11-28T18:47:19.355Z,31.83
2018-11-28T18:49:53.425Z,32.70
2018-11-28T18:52:27.898Z,32.47
2018-11-28T18:55:01.827Z,34.43
2018-11-28T18:57:35.903Z,29.87
2018-11-28T19:00:14.291Z,28.43
2018-11-28T19:02:48.409Z,32.17
2018-11-28T19:05:22.391Z,29.80
2018-11-28T19:07:56.586Z,28.73
2018-11-28T19:10:30.572Z,31.80
2018-11-28T19:13:04.787Z,31.07
2018-11-28T19:15:38.809Z,26.23
2018-11-28T19:18:12.820Z,28.93
2018-11-28T19:20:46.809Z,31.83
2018-11-28T19:23:21.049Z,33.50
2018-11-28T19:25:54.963Z,29.90
2018-11-28T19:28:28.973Z,31.03
2018-11-28T19:31:02.904Z,27.43
2018-11-28T19:33:36.949Z,32.93
2018-11-28T19:36:10.991Z,29.77
2018-11-28T19:38:45.008Z,29.63
2018-11-28T19:41:25.843Z,28.90
2018-11-28T19:43:59.776Z,30.10
2018-11-28T19:46:33.768Z,27.43
2018-11-28T19:49:07.903Z,29.10
2018-11-28T19:51:41.858Z,28.03
2018-11-28T19:54:16.039Z,26.47
2018-11-28T19:56:50.085Z,27.70
2018-11-28T19:59:24.052Z,29.03
2018-11-28T20:01:58.159Z,30.57
2018-11-28T20:04:32.125Z,29.33
2018-11-28T20:07:06.142Z,28.03
2018-11-28T20:09:40.256Z,29.73
2018-11-28T20:12:14.620Z,31.93
2018-11-28T20:14:48.621Z,31.77
2018-11-28T20:17:22.792Z,31.37
2018-11-28T20:19:56.749Z,30.53
2018-11-28T20:22:30.881Z,31.17
2018-11-28T20:25:05.686Z,27.23
2018-11-28T20:27:40.002Z,29.30
2018-11-28T20:30:25.295Z,26.73
2018-11-28T20:32:59.406Z,27.10
2018-11-28T20:35:33.348Z,26.80
2018-11-28T20:38:08.822Z,27.97
2018-11-28T20:40:42.743Z,27.73
2018-11-28T20:43:16.710Z,30.97
2018-11-28T20:45:50.701Z,26.77
2018-11-28T20:48:24.768Z,30.07
2018-11-28T20:50:58.759Z,27.80
2018-11-28T20:53:32.931Z,29.47
2018-11-28T20:56:06.942Z,29.50
2018-11-28T20:58:40.894Z,29.77
2018-11-28T21:01:14.887Z,30.13
2018-11-28T21:03:49.022Z,31.50
2018-11-28T21:06:22.945Z,31.57
2018-11-28T21:09:03.560Z,30.10
2018-11-28T21:11:37.576Z,28.37
2018-11-28T21:14:11.574Z,27.43
2018-11-28T21:16:45.553Z,29.60
2018-11-28T21:19:19.610Z,30.77
2018-11-28T21:21:53.671Z,29.00
2018-11-28T21:24:27.660Z,30.40
2018-11-28T21:27:01.604Z,30.10
2018-11-28T21:29:35.791Z,29.97
2018-11-28T21:32:09.834Z,28.07
2018-11-28T21:34:44.145Z,29.60
2018-11-28T21:37:18.128Z,30.53
2018-11-28T21:39:59.725Z,31.20
2018-11-28T21:42:33.689Z,32.67
2018-11-28T21:45:13.248Z,27.47
2018-11-28T21:47:47.343Z,27.10
2018-11-28T21:50:21.395Z,28.63
2018-11-28T21:52:55.315Z,30.30
2018-11-28T21:55:29.254Z,32.03
2018-11-28T21:58:03.203Z,28.03
2018-11-28T22:00:37.917Z,29.10
2018-11-28T22:03:11.879Z,27.50
2018-11-28T22:05:45.857Z,28.27
2018-11-28T22:08:20.609Z,32.10
2018-11-28T22:10:55.986Z,29.20
2018-11-28T22:13:31.596Z,29.97
2018-11-28T22:16:06.387Z,32.33
2018-11-28T22:18:40.309Z,29.27
2018-11-28T22:21:15.203Z,29.43
2018-11-28T22:23:49.137Z,29.57
2018-11-28T22:26:23.130Z,31.50
2018-11-28T22:28:57.200Z,29.40
2018-11-28T22:31:31.190Z,29.43
2018-11-28T22:34:05.262Z,32.93
2018-11-28T22:36:39.439Z,28.80
2018-11-28T22:39:13.415Z,30.33
2018-11-28T22:41:47.381Z,28.73
2018-11-28T22:44:21.433Z,33.70
2018-11-28T22:46:55.437Z,32.73
2018-11-28T22:49:29.394Z,31.47
2018-11-28T22:52:03.492Z,29.27
2018-11-28T22:54:37.401Z,27.77
2018-11-28T22:57:11.384Z,34.30
2018-11-28T22:59:45.348Z,29.13
2018-11-28T23:02:39.277Z,31.27
2018-11-28T23:05:13.225Z,29.97
2018-11-28T23:07:47.235Z,32.10
2018-11-28T23:10:21.151Z,26.70
2018-11-28T23:12:55.196Z,29.03
2018-11-28T23:15:29.199Z,31.30
2018-11-28T23:18:03.247Z,31.90
2018-11-28T23:20:38.276Z,30.50
2018-11-28T23:23:13.438Z,32.27
2018-11-28T23:25:47.456Z,29.53
2018-11-28T23:28:21.711Z,34.77
2018-11-28T23:30:55.597Z,29.80
2018-11-28T23:33:29.680Z,30.27
2018-11-28T23:36:03.776Z,30.50
2018-11-28T23:38:37.881Z,34.10
2018-11-28T23:41:11.904Z,31.47
2018-11-28T23:43:46.131Z,31.43
2018-11-28T23:46:20.092Z,30.77
2018-11-28T23:48:54.194Z,33.37
2018-11-28T23:51:28.336Z,35.03
2018-11-28T23:54:02.347Z,32.63
2018-11-28T23:56:36.319Z,30.97
2018-11-28T23:59:10.391Z,32.63
